createdAt,value
2023-02-22T00:00:03.625Z,86.2
2023-02-22T00:03:03.566Z,86.2
2023-02-22T00:06:03.310Z,85.8
2023-02-22T00:09:03.279Z,85.8
2023-02-22T00:12:03.293Z,85.8
2023-02-22T00:15:03.341Z,85.8
2023-02-22T00:18:03.295Z,85.8
2023-02-22T00:21:03.476Z,85.8
2023-02-22T00:24:03.307Z,85.8
2023-02-22T00:27:03.348Z,85.8
2023-02-22T00:30:03.345Z,85.8
2023-02-22T00:33:03.397Z,85.8
2023-02-22T00:36:03.394Z,85.8
2023-02-22T00:39:03.352Z,85.8
2023-02-22T00:42:03.358Z,85.8
2023-02-22T00:45:03.311Z,85.8
2023-02-22T00:48:03.334Z,84.6
2023-02-22T00:51:03.356Z,84.6
2023-02-22T00:54:03.355Z,84.6
2023-02-22T00:57:03.274Z,84.6
2023-02-22T01:00:03.291Z,84.6
2023-02-22T01:03:03.406Z,84.6
2023-02-22T01:06:03.324Z,84.6
2023-02-22T01:09:03.318Z,84.6
2023-02-22T01:12:03.309Z,84.6
2023-02-22T01:15:03.293Z,84.6
2023-02-22T01:18:03.309Z,84.6
2023-02-22T01:21:03.300Z,84.6
2023-02-22T01:24:03.293Z,84.6
2023-02-22T01:27:03.309Z,84.6
2023-02-22T01:30:03.376Z,84.6
2023-02-22T01:33:03.352Z,84.6
2023-02-22T01:36:03.340Z,84.6
2023-02-22T01:39:03.337Z,84.6
2023-02-22T01:42:03.279Z,84.6
2023-02-22T01:45:03.313Z,84.6
2023-02-22T01:48:03.333Z,84.6
2023-02-22T01:51:03.333Z,84.5
2023-02-22T01:54:03.312Z,84.5
2023-02-22T01:57:03.315Z,84.5
2023-02-22T02:00:03.308Z,84.5
2023-02-22T02:03:03.304Z,84.5
2023-02-22T02:06:03.309Z,84.5
2023-02-22T02:09:03.327Z,84.5
2023-02-22T02:12:03.334Z,84.5
2023-02-22T02:15:03.274Z,83.7
2023-02-22T02:18:03.414Z,83.7
2023-02-22T02:21:03.318Z,83.7
2023-02-22T02:24:03.276Z,83.7
2023-02-22T02:27:03.319Z,83.7
2023-02-22T02:30:03.364Z,83.7
2023-02-22T02:33:03.298Z,83.7
2023-02-22T02:36:03.363Z,83.7
2023-02-22T02:39:03.358Z,83.7
2023-02-22T02:42:03.305Z,83.1
2023-02-22T02:45:03.327Z,83.1
2023-02-22T02:48:03.345Z,83.1
2023-02-22T02:51:03.331Z,83.1
2023-02-22T02:54:03.292Z,83.1
2023-02-22T02:57:03.332Z,83.1
2023-02-22T03:00:03.359Z,83.1
2023-02-22T03:03:03.318Z,83.1
2023-02-22T03:06:03.316Z,83.1
2023-02-22T03:09:03.271Z,83
2023-02-22T03:12:03.537Z,83
2023-02-22T03:15:03.506Z,83
2023-02-22T03:18:03.337Z,83
2023-02-22T03:21:03.333Z,83
2023-02-22T03:24:03.301Z,83
2023-02-22T03:27:03.281Z,83
2023-02-22T03:30:03.320Z,83
2023-02-22T03:33:03.358Z,83
2023-02-22T03:36:03.303Z,83.6
2023-02-22T03:39:03.312Z,83.6
2023-02-22T03:42:03.334Z,83.6
2023-02-22T03:45:03.321Z,83.6
2023-02-22T03:48:03.302Z,83.6
2023-02-22T03:51:03.357Z,83.6
2023-02-22T03:54:03.305Z,83.6
2023-02-22T03:57:03.360Z,83.6
2023-02-22T04:00:03.348Z,83.6
2023-02-22T04:03:03.402Z,83.6
2023-02-22T04:06:03.311Z,83.6
2023-02-22T04:09:03.329Z,83.6
2023-02-22T04:12:03.323Z,84.2
2023-02-22T04:15:03.316Z,84.2
2023-02-22T04:18:03.297Z,84.2
2023-02-22T04:21:03.321Z,84.2
2023-02-22T04:24:03.287Z,84.2
2023-02-22T04:27:03.312Z,84.2
2023-02-22T04:30:03.394Z,84.2
2023-02-22T04:33:03.332Z,84.2
2023-02-22T04:36:03.336Z,84.2
2023-02-22T04:39:03.345Z,84.2
2023-02-22T04:42:03.349Z,84.2
2023-02-22T04:45:03.353Z,84.2
2023-02-22T04:48:03.311Z,84.2
2023-02-22T04:51:03.316Z,84.2
2023-02-22T04:54:03.304Z,84.2
2023-02-22T04:57:03.395Z,84.2
2023-02-22T05:00:03.361Z,84.2
2023-02-22T05:03:03.330Z,84.2
2023-02-22T05:06:03.333Z,84.2
2023-02-22T05:09:03.339Z,85.7
2023-02-22T05:12:03.301Z,85.7
2023-02-22T05:15:03.345Z,85.7
2023-02-22T05:18:03.318Z,85.7
2023-02-22T05:21:03.328Z,85.7
2023-02-22T05:24:03.288Z,85.7
2023-02-22T05:27:03.330Z,85.7
2023-02-22T05:30:03.368Z,85.7
2023-02-22T05:33:03.321Z,85.7
2023-02-22T05:36:03.502Z,85.7
2023-02-22T05:39:03.326Z,85.7
2023-02-22T05:42:03.346Z,85.7
2023-02-22T05:45:03.307Z,85.7
2023-02-22T05:48:03.343Z,85.7
2023-02-22T05:51:03.524Z,85.7
2023-02-22T05:54:03.355Z,85.7
2023-02-22T05:57:03.303Z,85.7
2023-02-22T06:00:03.339Z,85.7
2023-02-22T06:03:03.292Z,85.7
2023-02-22T06:06:03.353Z,85.7
2023-02-22T06:09:03.317Z,85.7
2023-02-22T06:12:03.372Z,85.7
2023-02-22T06:15:03.294Z,85.7
2023-02-22T06:18:03.405Z,85.7
2023-02-22T06:21:03.370Z,85.7
2023-02-22T06:24:03.346Z,85.7
2023-02-22T06:27:03.369Z,85.7
2023-02-22T06:30:03.748Z,88.6
2023-02-22T06:33:03.367Z,88.6
2023-02-22T06:36:03.362Z,88.6
2023-02-22T06:39:03.317Z,88.6
2023-02-22T06:42:03.745Z,88.6
2023-02-22T06:45:03.416Z,88.6
2023-02-22T06:48:03.410Z,88.6
2023-02-22T06:51:03.381Z,88.6
2023-02-22T06:54:03.375Z,88.6
2023-02-22T06:57:03.360Z,88.6
2023-02-22T07:00:03.538Z,88.6
2023-02-22T07:03:03.471Z,88.6
2023-02-22T07:06:03.406Z,88.6
2023-02-22T07:09:03.323Z,88.6
2023-02-22T07:12:03.375Z,88.6
2023-02-22T07:15:03.376Z,88.6
2023-02-22T07:18:03.394Z,88.6
2023-02-22T07:21:03.389Z,88.6
2023-02-22T07:24:05.442Z,91.3
2023-02-22T07:27:03.405Z,91.3
2023-02-22T07:30:03.401Z,91.3
2023-02-22T07:33:03.552Z,91.3
2023-02-22T07:36:03.424Z,91.3
2023-02-22T07:39:03.354Z,91.3
2023-02-22T07:42:03.414Z,91.3
2023-02-22T07:45:03.426Z,91.3
2023-02-22T07:48:03.406Z,93
2023-02-22T07:51:03.446Z,93
2023-02-22T07:54:03.463Z,93
2023-02-22T07:57:03.407Z,93
2023-02-22T08:00:03.890Z,93
2023-02-22T08:03:03.394Z,93
2023-02-22T08:06:03.366Z,93
2023-02-22T08:09:03.462Z,93
2023-02-22T08:12:03.376Z,93
2023-02-22T08:15:03.369Z,93
2023-02-22T08:18:03.476Z,93.2
2023-02-22T08:21:03.415Z,93.2
2023-02-22T08:24:03.383Z,93.2
2023-02-22T08:27:03.441Z,93.2
2023-02-22T08:30:03.441Z,93.2
2023-02-22T08:33:03.854Z,93.2
2023-02-22T08:36:03.321Z,93.1
2023-02-22T08:39:03.398Z,93.1
2023-02-22T08:42:03.400Z,93.1
2023-02-22T08:45:03.414Z,93.1
2023-02-22T08:48:03.411Z,93.1
2023-02-22T08:51:03.354Z,93.1
2023-02-22T08:54:03.405Z,92.3
2023-02-22T08:57:03.372Z,92.3
2023-02-22T09:00:03.492Z,92.3
2023-02-22T09:03:03.486Z,92.3
2023-02-22T09:06:03.470Z,92.3
2023-02-22T09:09:03.355Z,92.3
2023-02-22T09:12:03.377Z,92.3
2023-02-22T09:15:03.391Z,91.4
2023-02-22T09:18:03.413Z,91.4
2023-02-22T09:21:03.440Z,91.4
2023-02-22T09:24:03.347Z,91.4
2023-02-22T09:27:03.482Z,91.4
2023-02-22T09:30:03.491Z,91.4
2023-02-22T09:33:03.897Z,91.4
2023-02-22T09:36:03.370Z,90.8
2023-02-22T09:39:03.356Z,90.8
2023-02-22T09:42:03.409Z,90.8
2023-02-22T09:45:03.425Z,90.8
2023-02-22T09:48:23.563Z,90.8
2023-02-22T09:51:03.404Z,90.9
2023-02-22T09:54:03.427Z,90.9
2023-02-22T09:57:03.362Z,90.9
2023-02-22T10:00:03.735Z,90.3
2023-02-22T10:03:03.406Z,90.3
2023-02-22T10:06:03.329Z,90.3
2023-02-22T10:09:03.464Z,90.3
2023-02-22T10:12:03.418Z,90.3
2023-02-22T10:15:03.554Z,89.3
2023-02-22T10:18:03.499Z,89.3
2023-02-22T10:21:03.388Z,89.3
2023-02-22T10:24:03.393Z,89.3
2023-02-22T10:27:03.402Z,89.3
2023-02-22T10:30:22.260Z,89.3
2023-02-22T10:33:03.462Z,87.3
2023-02-22T10:36:03.496Z,87.3
2023-02-22T10:39:03.406Z,87.3
2023-02-22T10:42:03.365Z,87.3
2023-02-22T10:45:03.400Z,87.3
2023-02-22T10:48:03.412Z,87.3
2023-02-22T10:51:03.423Z,87.3
2023-02-22T10:54:03.505Z,87.3
2023-02-22T10:57:03.417Z,85.9
2023-02-22T11:00:03.510Z,85.9
2023-02-22T11:03:03.366Z,85.9
2023-02-22T11:06:04.627Z,85.9
2023-02-22T11:09:03.415Z,85.9
2023-02-22T11:12:03.453Z,85.9
2023-02-22T11:15:03.418Z,85.9
2023-02-22T11:18:04.271Z,85.9
2023-02-22T11:21:03.355Z,84.4
2023-02-22T11:24:03.353Z,84.4
2023-02-22T11:27:03.377Z,84.4
2023-02-22T11:30:05.605Z,84.4
2023-02-22T11:33:03.417Z,84.4
2023-02-22T11:36:03.399Z,84.4
2023-02-22T11:39:03.492Z,84.4
2023-02-22T11:42:03.400Z,84.4
2023-02-22T11:45:03.435Z,84.4
2023-02-22T11:48:03.488Z,84.4
2023-02-22T11:51:03.411Z,84.4
2023-02-22T11:54:03.343Z,84.4
2023-02-22T11:57:03.452Z,84.4
2023-02-22T12:00:03.430Z,84.2
2023-02-22T12:03:03.369Z,84.2
2023-02-22T12:06:03.417Z,84.2
2023-02-22T12:09:03.441Z,84.2
2023-02-22T12:12:03.383Z,84.2
2023-02-22T12:15:03.430Z,84.2
2023-02-22T12:18:03.300Z,84.2
2023-02-22T12:21:03.371Z,84.2
2023-02-22T12:24:03.435Z,82.9
2023-02-22T12:27:05.648Z,82.9
2023-02-22T12:30:03.432Z,82.9
2023-02-22T12:33:06.219Z,82.9
2023-02-22T12:36:03.440Z,82.9
2023-02-22T12:39:05.478Z,82.9
2023-02-22T12:42:03.335Z,82.9
2023-02-22T12:45:05.730Z,81.2
2023-02-22T12:48:03.374Z,81.2
2023-02-22T12:51:03.442Z,81.2
2023-02-22T12:54:03.610Z,81.2
2023-02-22T12:57:03.447Z,81.2
2023-02-22T13:00:03.517Z,81.2
2023-02-22T13:03:03.399Z,80.1
2023-02-22T13:06:03.391Z,80.1
2023-02-22T13:09:03.405Z,80.1
2023-02-22T13:12:03.331Z,80.1
2023-02-22T13:15:03.354Z,80.1
2023-02-22T13:18:04.311Z,80.1
2023-02-22T13:21:03.330Z,78.9
2023-02-22T13:24:03.427Z,78.9
2023-02-22T13:27:03.398Z,78.9
2023-02-22T13:30:03.609Z,78.9
2023-02-22T13:33:03.463Z,78.9
2023-02-22T13:36:03.435Z,78.9
2023-02-22T13:39:03.406Z,78.4
2023-02-22T13:42:03.422Z,78.4
2023-02-22T13:45:03.360Z,78.4
2023-02-22T13:48:03.450Z,78.4
2023-02-22T13:51:03.429Z,78.4
2023-02-22T13:54:03.348Z,78.4
2023-02-22T13:57:03.423Z,78.4
2023-02-22T14:00:03.385Z,77.2
2023-02-22T14:03:03.620Z,77.2
2023-02-22T14:06:03.421Z,77.2
2023-02-22T14:09:03.403Z,77.2
2023-02-22T14:12:03.435Z,77.2
2023-02-22T14:15:03.386Z,77.2
2023-02-22T14:18:03.424Z,77.2
2023-02-22T14:21:03.345Z,77.2
2023-02-22T14:24:03.406Z,77.2
2023-02-22T14:27:03.476Z,77.2
2023-02-22T14:30:03.453Z,77.2
2023-02-22T14:33:03.423Z,77.2
2023-02-22T14:36:03.422Z,77.2
2023-02-22T14:39:03.437Z,77.2
2023-02-22T14:42:03.327Z,77.2
2023-02-22T14:45:03.360Z,77.2
2023-02-22T14:48:03.611Z,77.2
2023-02-22T14:51:25.860Z,77.2
2023-02-22T14:54:03.356Z,77.2
2023-02-22T14:57:03.333Z,77.2
2023-02-22T15:00:03.507Z,77.2
2023-02-22T15:03:03.507Z,77.2
2023-02-22T15:06:03.369Z,77.2
2023-02-22T15:09:03.401Z,77.2
2023-02-22T15:12:03.446Z,77.2
2023-02-22T15:15:03.439Z,77.7
2023-02-22T15:18:03.339Z,77.7
2023-02-22T15:21:05.173Z,77.7
2023-02-22T15:24:03.402Z,77.7
2023-02-22T15:27:08.101Z,77.7
2023-02-22T15:30:03.539Z,77.7
2023-02-22T15:33:07.400Z,77.7
2023-02-22T15:36:03.367Z,77.7
2023-02-22T15:39:03.405Z,77.7
2023-02-22T15:42:03.371Z,77.7
2023-02-22T15:45:03.382Z,77.7
2023-02-22T15:48:03.409Z,78.2
2023-02-22T15:51:03.376Z,78.2
2023-02-22T15:54:03.448Z,78.2
2023-02-22T15:57:03.374Z,78.2
2023-02-22T16:00:03.553Z,78.2
2023-02-22T16:03:03.427Z,78.2
2023-02-22T16:06:04.234Z,78.2
2023-02-22T16:09:03.414Z,78.2
2023-02-22T16:12:03.411Z,78.2
2023-02-22T16:15:03.373Z,78.2
2023-02-22T16:18:05.196Z,78.2
2023-02-22T16:21:03.414Z,78.2
2023-02-22T16:24:18.010Z,78.2
2023-02-22T16:27:03.538Z,78.2
2023-02-22T16:30:07.888Z,80.1
2023-02-22T16:33:03.487Z,80.1
2023-02-22T16:36:03.488Z,80.1
2023-02-22T16:39:03.488Z,80.1
2023-02-22T16:42:03.416Z,80.1
2023-02-22T16:45:03.353Z,80.1
2023-02-22T16:48:03.346Z,80.1
2023-02-22T16:51:03.325Z,80.1
2023-02-22T16:54:03.333Z,80.1
2023-02-22T16:57:03.432Z,80.1
2023-02-22T17:00:03.304Z,80.9
2023-02-22T17:03:03.313Z,80.9
2023-02-22T17:06:03.327Z,80.9
2023-02-22T17:09:03.357Z,80.9
2023-02-22T17:12:03.328Z,80.9
2023-02-22T17:15:03.364Z,80.9
2023-02-22T17:18:03.332Z,80.9
2023-02-22T17:21:03.310Z,80.9
2023-02-22T17:24:03.299Z,81.4
2023-02-22T17:27:03.288Z,81.4
2023-02-22T17:30:03.341Z,81.4
2023-02-22T17:33:03.355Z,81.4
2023-02-22T17:36:03.354Z,81.4
2023-02-22T17:39:03.355Z,81.4
2023-02-22T17:42:03.387Z,81.4
2023-02-22T17:45:03.370Z,81.4
2023-02-22T17:48:03.315Z,81.4
2023-02-22T17:51:03.394Z,81.4
2023-02-22T17:54:03.346Z,82.3
2023-02-22T17:57:03.267Z,82.3
2023-02-22T18:00:03.425Z,82.3
2023-02-22T18:03:03.485Z,82.3
2023-02-22T18:06:03.314Z,82.3
2023-02-22T18:09:03.291Z,82.3
2023-02-22T18:12:03.303Z,82.3
2023-02-22T18:15:03.373Z,82.3
2023-02-22T18:18:03.301Z,82.3
2023-02-22T18:21:03.291Z,82.3
2023-02-22T18:24:03.351Z,82.3
2023-02-22T18:27:03.320Z,82.3
2023-02-22T18:30:03.342Z,82.3
2023-02-22T18:33:03.308Z,82.6
2023-02-22T18:36:03.308Z,82.6
2023-02-22T18:39:03.305Z,82.6
2023-02-22T18:42:03.369Z,82.6
2023-02-22T18:45:03.411Z,82.6
2023-02-22T18:48:03.335Z,82.6
2023-02-22T18:51:03.328Z,82.6
2023-02-22T18:54:03.456Z,82.6
2023-02-22T18:57:03.310Z,82.6
2023-02-22T19:00:03.342Z,82.6
2023-02-22T19:03:03.543Z,82.6
2023-02-22T19:06:03.310Z,82.6
2023-02-22T19:09:03.318Z,82.6
2023-02-22T19:12:03.347Z,82.6
2023-02-22T19:15:03.353Z,82.6
2023-02-22T19:18:03.364Z,82.6
2023-02-22T19:21:03.361Z,82.6
2023-02-22T19:24:03.423Z,82.6
2023-02-22T19:27:03.384Z,83.4
2023-02-22T19:30:03.358Z,83.4
2023-02-22T19:33:03.367Z,83.4
2023-02-22T19:36:03.296Z,83.4
2023-02-22T19:39:03.322Z,83.4
2023-02-22T19:42:03.469Z,83.4
2023-02-22T19:45:03.407Z,83.4
2023-02-22T19:48:03.336Z,83.4
2023-02-22T19:51:03.370Z,83.4
2023-02-22T19:54:03.347Z,83.4
2023-02-22T19:57:03.351Z,83.4
2023-02-22T20:00:03.280Z,83.7
2023-02-22T20:03:03.335Z,83.7
2023-02-22T20:06:03.366Z,83.7
2023-02-22T20:09:03.309Z,83.7
2023-02-22T20:12:03.409Z,83.7
2023-02-22T20:15:03.324Z,83.7
2023-02-22T20:18:03.401Z,83.7
2023-02-22T20:21:03.328Z,83.7
2023-02-22T20:24:03.351Z,83.7
2023-02-22T20:27:03.366Z,83.7
2023-02-22T20:30:03.374Z,83.7
2023-02-22T20:33:04.005Z,83.7
2023-02-22T20:36:03.370Z,83.7
2023-02-22T20:39:03.364Z,84.5
2023-02-22T20:42:03.313Z,84.5
2023-02-22T20:45:03.311Z,84.5
2023-02-22T20:48:03.347Z,84.5
2023-02-22T20:51:03.308Z,84.5
2023-02-22T20:54:03.345Z,84.5
2023-02-22T20:57:03.311Z,84.5
2023-02-22T21:00:03.954Z,84.5
2023-02-22T21:03:03.394Z,84.5
2023-02-22T21:06:03.303Z,84.5
2023-02-22T21:09:03.408Z,84.5
2023-02-22T21:12:03.319Z,84.5
2023-02-22T21:15:03.329Z,84.5
2023-02-22T21:18:03.335Z,84.5
2023-02-22T21:21:03.287Z,84.8
2023-02-22T21:24:03.383Z,84.8
2023-02-22T21:27:03.410Z,84.8
2023-02-22T21:30:03.329Z,84.8
2023-02-22T21:33:03.379Z,84.9
2023-02-22T21:36:03.452Z,84.9
2023-02-22T21:39:03.304Z,84.9
2023-02-22T21:42:03.350Z,84.9
2023-02-22T21:45:03.468Z,84.9
2023-02-22T21:48:03.316Z,84.9
2023-02-22T21:51:03.376Z,84.9
2023-02-22T21:54:03.454Z,84.9
2023-02-22T21:57:03.372Z,84.9
2023-02-22T22:00:03.366Z,84.9
2023-02-22T22:03:03.401Z,84.9
2023-02-22T22:06:03.342Z,84.9
2023-02-22T22:09:03.371Z,84.9
2023-02-22T22:12:03.379Z,84.9
2023-02-22T22:15:03.262Z,84.9
2023-02-22T22:18:03.320Z,84.9
2023-02-22T22:21:03.318Z,86
2023-02-22T22:24:03.325Z,86
2023-02-22T22:27:03.279Z,86
2023-02-22T22:30:03.361Z,86
2023-02-22T22:33:03.325Z,86
2023-02-22T22:36:03.312Z,86
2023-02-22T22:39:03.344Z,86
2023-02-22T22:42:03.338Z,86
2023-02-22T22:45:03.291Z,86
2023-02-22T22:48:03.328Z,86
2023-02-22T22:51:03.299Z,86
2023-02-22T22:54:03.363Z,86
2023-02-22T22:57:03.540Z,86
2023-02-22T23:00:04.014Z,86
2023-02-22T23:03:03.646Z,86
2023-02-22T23:06:03.325Z,86
2023-02-22T23:09:03.278Z,86
2023-02-22T23:12:03.369Z,86
2023-02-22T23:15:03.289Z,86
2023-02-22T23:18:03.365Z,86
2023-02-22T23:21:03.370Z,86
2023-02-22T23:24:03.318Z,87.3
2023-02-22T23:27:03.380Z,87.3
2023-02-22T23:30:03.317Z,87.3
2023-02-22T23:33:03.365Z,87.3
2023-02-22T23:36:03.314Z,87.3
2023-02-22T23:39:03.334Z,87.3
2023-02-22T23:42:03.325Z,87.3
2023-02-22T23:45:03.357Z,87.3
2023-02-22T23:48:03.318Z,87.3
2023-02-22T23:51:03.283Z,87.3
2023-02-22T23:54:03.331Z,87.3
2023-02-22T23:57:03.366Z,87.3
